Time;durP1;ratioP1;P1;durP2;ratioP2;P2;SDS_P1;SDS_P2;PMS_P1;PMS_P2;Temp;Humidity;BMP_temperature;BMP_pressure;BME280_temperature;BME280_humidity;BME280_pressure;Samples;Min_cycle;Max_cycle;Signal;HPM_P1;HPM_P2
2023/11/11 00:02:23;;;;;;;2.90;1.50;;;;;;;10.25;79.88;92930.97;4891403;29;20080;-77
2023/11/11 00:04:48;;;;;;;6.80;3.03;;;;;;;10.43;77.53;92950.19;4890403;29;20036;-77
2023/11/11 00:07:14;;;;;;;14.38;5.82;;;;;;;10.42;76.43;92983.25;4891253;29;20264;-78
2023/11/11 00:09:40;;;;;;;8.95;5.35;;;;;;;10.01;78.43;92966.31;4889435;29;20092;-77
2023/11/11 00:12:51;;;;;;;9.43;5.70;;;;;;;9.75;79.44;92967.41;4890004;29;20040;-77
2023/11/11 00:15:35;;;;;;;9.77;5.37;;;;;;;9.57;80.47;92953.50;4846815;29;20181;-77
2023/11/11 00:18:33;;;;;;;;;;;;;;;9.50;81.21;92957.78;4871002;29;20339;-77
2023/11/11 00:21:49;;;;;;;11.95;6.47;;;;;;;9.32;82.80;92939.34;4857009;29;19936;-78
2023/11/11 00:24:15;;;;;;;7.53;4.28;;;;;;;9.23;83.69;92941.28;4870692;29;20282;-78
2023/11/11 00:26:40;;;;;;;5.70;3.95;;;;;;;9.20;84.15;92940.06;4870390;29;20037;-77
2023/11/11 00:29:07;;;;;;;8.20;4.97;;;;;;;9.20;84.20;92929.44;4855057;29;20318;-78
2023/11/11 00:31:34;;;;;;;8.55;4.50;;;;;;;9.23;84.62;92928.00;4870826;29;20112;-78
2023/11/11 00:34:00;;;;;;;9.07;4.28;;;;;;;9.27;84.25;92914.84;4870589;29;20041;-78
2023/11/11 00:36:30;;;;;;;8.48;4.78;;;;;;;9.29;84.22;92900.09;4870367;29;20098;-77
2023/11/11 00:38:58;;;;;;;10.95;3.33;;;;;;;9.34;83.95;92912.41;4870513;29;20100;-77
2023/11/11 00:41:25;;;;;;;4.57;2.30;;;;;;;9.44;83.68;92926.09;4870351;29;20142;-77
2023/11/11 00:43:50;;;;;;;4.53;2.70;;;;;;;9.54;82.92;92916.13;4870334;29;20029;-77
2023/11/11 00:46:17;;;;;;;6.13;2.42;;;;;;;9.67;82.69;92931.00;4882820;29;20101;-76
2023/11/11 00:48:43;;;;;;;5.97;3.10;;;;;;;9.73;82.07;92932.34;4890686;29;20029;-77
2023/11/11 00:51:08;;;;;;;9.75;2.75;;;;;;;9.79;82.21;92904.44;4890550;29;20048;-77
2023/11/11 00:53:34;;;;;;;7.03;2.38;;;;;;;9.80;81.84;92908.63;4890291;29;20085;-77
2023/11/11 00:56:00;;;;;;;4.07;2.10;;;;;;;9.92;81.32;92886.56;4890403;29;20219;-77
2023/11/11 00:58:25;;;;;;;2.13;0.90;;;;;;;10.07;80.97;92905.66;4890295;29;20087;-76
2023/11/11 01:00:51;;;;;;;5.20;2.22;;;;;;;10.19;78.90;92898.44;4890376;29;20226;-77
2023/11/11 01:03:16;;;;;;;5.22;2.28;;;;;;;10.31;78.55;92924.31;4890323;29;20029;-77
2023/11/11 01:05:42;;;;;;;4.18;2.38;;;;;;;10.43;78.39;92915.56;4890214;29;20141;-77
2023/11/11 01:08:09;;;;;;;5.70;3.10;;;;;;;10.48;77.13;92939.28;4890081;29;20096;-77
2023/11/11 01:10:37;;;;;;;9.52;4.57;;;;;;;10.43;77.15;92964.28;4890133;29;20273;-77
2023/11/11 01:13:03;;;;;;;7.28;4.60;;;;;;;10.30;77.73;92927.31;4889905;29;20029;-78
2023/11/11 01:15:29;;;;;;;7.28;3.75;;;;;;;10.29;78.12;92909.78;4889966;29;20322;-78
2023/11/11 01:17:55;;;;;;;4.43;2.70;;;;;;;10.22;78.52;92937.72;4890099;29;20077;-78
2023/11/11 01:20:20;;;;;;;4.65;2.45;;;;;;;10.28;78.61;92913.53;4888973;29;20029;-78
2023/11/11 01:22:46;;;;;;;3.22;1.73;;;;;;;10.40;77.97;92889.56;4889827;29;20028;-78
2023/11/11 01:25:12;;;;;;;2.53;1.63;;;;;;;10.56;76.69;92919.78;4889709;29;20036;-78
2023/11/11 01:27:38;;;;;;;4.80;2.60;;;;;;;10.74;75.98;92935.50;4889797;29;20037;-78
2023/11/11 01:30:05;;;;;;;6.85;2.78;;;;;;;10.64;75.95;92905.56;4889821;29;20033;-78
2023/11/11 01:32:30;;;;;;;4.05;2.67;;;;;;;10.65;76.23;92911.66;4889894;29;20029;-79
2023/11/11 01:34:56;;;;;;;8.85;2.50;;;;;;;10.63;76.12;92924.53;4889698;29;20036;-78
2023/11/11 01:37:21;;;;;;;7.85;2.83;;;;;;;10.53;75.86;92931.09;4889399;29;20261;-78
2023/11/11 01:39:47;;;;;;;5.82;3.10;;;;;;;10.49;76.54;92908.88;4889643;29;20310;-77
2023/11/11 01:42:15;;;;;;;5.88;2.92;;;;;;;10.42;76.94;92911.31;4889530;29;20068;-77
2023/11/11 01:44:40;;;;;;;7.45;3.25;;;;;;;10.40;77.09;92908.22;4888307;29;20032;-77
2023/11/11 01:47:09;;;;;;;4.15;2.40;;;;;;;10.36;77.48;92928.66;4889307;29;20025;-77
2023/11/11 01:49:34;;;;;;;5.57;2.20;;;;;;;10.44;77.24;92911.78;4889451;29;20025;-77
2023/11/11 01:52:01;;;;;;;5.40;2.30;;;;;;;10.49;77.25;92905.47;4887435;29;20326;-77
2023/11/11 01:54:28;;;;;;;5.03;2.25;;;;;;;10.52;77.09;92892.25;4888580;29;20052;-77
2023/11/11 01:56:56;;;;;;;4.50;1.60;;;;;;;10.58;76.06;92903.44;4887898;29;20028;-77
2023/11/11 01:59:23;;;;;;;3.72;1.30;;;;;;;10.70;74.42;92908.75;4888954;29;20029;-77
2023/11/11 02:01:49;;;;;;;2.55;1.40;;;;;;;10.86;74.21;92889.38;4888103;29;20027;-78
2023/11/11 02:04:15;;;;;;;3.13;1.38;;;;;;;10.96;73.23;92907.56;4889090;29;20211;-77
2023/11/11 02:06:41;;;;;;;2.83;1.40;;;;;;;11.02;73.18;92887.56;4889188;29;20022;-77
2023/11/11 02:09:07;;;;;;;2.53;1.25;;;;;;;11.12;71.93;92902.31;4889271;29;20065;-77
2023/11/11 02:11:36;;;;;;;5.78;1.40;;;;;;;11.23;71.75;92890.03;4889225;29;20025;-77
2023/11/11 02:14:05;;;;;;;2.30;1.27;;;;;;;11.31;71.90;92883.00;4889014;29;20035;-77
2023/11/11 02:16:34;;;;;;;2.20;1.25;;;;;;;11.36;71.51;92883.53;4889248;29;20025;-77
2023/11/11 02:19:00;;;;;;;1.52;0.88;;;;;;;11.49;70.78;92875.47;4889157;29;20048;-77
2023/11/11 02:21:33;;;;;;;1.70;0.88;;;;;;;11.61;69.99;92892.16;4888965;29;20061;-78
2023/11/11 02:24:00;;;;;;;3.78;1.80;;;;;;;11.68;69.72;92864.88;4888000;29;20223;-78
2023/11/11 02:26:26;;;;;;;2.58;1.00;;;;;;;11.60;69.57;92869.28;4887822;29;20032;-80
2023/11/11 02:28:51;;;;;;;2.40;1.38;;;;;;;11.59;69.83;92877.63;4887869;29;20131;-80
2023/11/11 02:31:18;;;;;;;3.80;1.45;;;;;;;11.56;70.27;92854.28;4888617;29;20048;-79
2023/11/11 02:33:43;;;;;;;3.58;1.88;;;;;;;11.48;70.42;92852.53;4887521;29;20051;-80
2023/11/11 02:36:10;;;;;;;3.60;1.98;;;;;;;11.39;71.14;92856.16;4888880;29;20044;-79
2023/11/11 02:38:35;;;;;;;4.60;2.60;;;;;;;11.28;71.51;92862.34;4888868;29;20040;-79
2023/11/11 02:41:01;;;;;;;4.43;2.60;;;;;;;11.18;71.73;92858.28;4889027;29;20029;-80
2023/11/11 02:43:26;;;;;;;5.13;2.35;;;;;;;11.01;71.80;92865.47;4888592;29;20219;-80
2023/11/11 02:45:52;;;;;;;5.65;2.00;;;;;;;10.91;72.28;92855.28;4888713;29;20025;-79
2023/11/11 02:48:18;;;;;;;4.35;2.15;;;;;;;10.94;73.00;92869.81;4888674;29;20032;-80
2023/11/11 02:50:43;;;;;;;3.15;1.85;;;;;;;10.95;73.06;92871.34;4887573;29;20031;-80
2023/11/11 02:53:09;;;;;;;3.72;2.15;;;;;;;10.98;72.79;92866.13;4888328;29;20064;-78
2023/11/11 02:55:34;;;;;;;4.65;1.95;;;;;;;11.00;72.89;92869.22;4888703;29;20283;-78
2023/11/11 02:58:00;;;;;;;3.83;1.80;;;;;;;10.94;72.54;92881.25;4888886;29;20104;-78
2023/11/11 03:00:26;;;;;;;2.92;1.33;;;;;;;10.94;73.74;92872.47;4888642;29;20021;-77
2023/11/11 03:02:51;;;;;;;5.03;2.00;;;;;;;10.99;73.76;92864.22;4888511;29;20214;-78
2023/11/11 03:05:16;;;;;;;7.88;2.00;;;;;;;11.05;74.38;92873.53;4888557;29;20040;-78
2023/11/11 03:07:42;;;;;;;1.75;0.82;;;;;;;11.12;74.52;92846.31;4888390;29;20025;-79
2023/11/11 03:10:09;;;;;;;8.80;1.02;;;;;;;11.18;75.29;92859.03;4888602;29;20020;-80
2023/11/11 03:12:35;;;;;;;1.92;0.85;;;;;;;11.28;75.43;92871.13;4888400;29;20028;-80
2023/11/11 03:15:01;;;;;;;2.55;0.80;;;;;;;11.42;74.26;92879.50;4888600;29;20033;-80
2023/11/11 03:17:31;;;;;;;3.30;0.98;;;;;;;11.57;73.65;92861.19;4888442;29;20025;-81
2023/11/11 03:19:57;;;;;;;1.67;0.90;;;;;;;11.68;74.26;92870.22;4888524;29;20033;-80
2023/11/11 03:22:23;;;;;;;1.90;0.90;;;;;;;11.85;72.14;92864.53;4888351;29;20261;-80
2023/11/11 03:24:49;;;;;;;2.28;1.60;;;;;;;12.03;71.18;92856.22;4888573;29;20032;-80
2023/11/11 03:27:14;;;;;;;0.98;0.70;;;;;;;12.09;71.18;92859.38;4888575;29;20017;-80
2023/11/11 03:29:40;;;;;;;1.70;0.80;;;;;;;12.18;70.39;92860.75;4888468;29;20100;-79
2023/11/11 03:32:07;;;;;;;1.75;0.90;;;;;;;12.17;70.86;92848.53;4888154;29;20327;-80
2023/11/11 03:34:32;;;;;;;1.95;1.13;;;;;;;12.07;70.59;92834.91;4887234;29;20103;-79
2023/11/11 03:36:58;;;;;;;5.07;1.70;;;;;;;12.00;70.02;92838.22;4888458;29;20027;-80
2023/11/11 03:39:25;;;;;;;4.72;1.50;;;;;;;11.99;69.67;92836.69;4888384;29;20021;-79
2023/11/11 03:41:50;;;;;;;2.22;1.10;;;;;;;11.97;69.62;92841.59;4887086;29;20056;-78
2023/11/11 03:44:16;;;;;;;2.58;1.60;;;;;;;11.94;69.92;92840.38;4889879;29;20017;-78
2023/11/11 03:46:41;;;;;;;3.75;1.55;;;;;;;11.92;69.70;92852.50;4891737;29;20027;-79
2023/11/11 03:49:07;;;;;;;2.63;1.65;;;;;;;11.82;69.82;92854.56;4891746;29;20255;-78
2023/11/11 03:51:32;;;;;;;3.47;2.00;;;;;;;11.79;70.19;92855.25;4891783;29;20318;-79
2023/11/11 03:53:58;;;;;;;4.72;1.98;;;;;;;11.75;70.26;92853.63;4891395;29;20347;-79
2023/11/11 03:56:24;;;;;;;7.32;2.42;;;;;;;11.59;70.65;92872.28;4891725;29;20021;-78
2023/11/11 03:58:50;;;;;;;10.63;2.17;;;;;;;11.54;70.88;92864.50;4891466;29;20100;-78
2023/11/11 04:01:16;;;;;;;5.63;2.53;;;;;;;11.51;71.47;92860.66;4891527;29;20082;-77
2023/11/11 04:03:43;;;;;;;4.57;1.75;;;;;;;11.45;71.72;92841.44;4891467;29;20321;-78
2023/11/11 04:06:09;;;;;;;1.92;1.30;;;;;;;11.40;72.04;92839.03;4891441;29;20383;-78
2023/11/11 04:08:36;;;;;;;1.63;0.93;;;;;;;11.48;70.70;92849.88;4891202;29;20036;-80
2023/11/11 04:11:06;;;;;;;1.20;0.60;;;;;;;11.62;68.90;92819.00;4891533;29;20039;-81
2023/11/11 04:13:32;;;;;;;1.52;0.80;;;;;;;11.80;69.19;92830.09;4891331;29;20025;-80
2023/11/11 04:15:57;;;;;;;2.95;1.10;;;;;;;11.95;69.38;92809.13;4890160;29;20047;-80
2023/11/11 04:18:23;;;;;;;2.03;1.10;;;;;;;12.05;69.97;92803.25;4890033;29;20098;-81
2023/11/11 04:20:48;;;;;;;1.38;0.80;;;;;;;12.08;69.54;92804.44;4891399;29;20095;-80
2023/11/11 04:23:14;;;;;;;4.35;2.50;;;;;;;11.95;70.15;92803.78;4890160;29;20370;-79
2023/11/11 04:25:39;;;;;;;9.77;3.40;;;;;;;11.83;71.30;92813.38;4890900;29;20128;-79
2023/11/11 04:28:04;;;;;;;6.22;3.50;;;;;;;11.63;71.95;92822.44;4890118;29;20028;-79
2023/11/11 04:30:30;;;;;;;6.68;4.10;;;;;;;11.44;72.93;92833.81;4891060;29;20297;-79
2023/11/11 04:32:55;;;;;;;8.68;4.70;;;;;;;11.18;73.73;92818.28;4890874;29;20262;-79
2023/11/11 04:35:21;;;;;;;8.85;4.50;;;;;;;11.11;74.47;92810.84;4890752;29;20123;-78
2023/11/11 04:37:49;;;;;;;10.40;4.32;;;;;;;11.12;75.03;92784.97;4890789;29;20215;-80
2023/11/11 04:40:14;;;;;;;6.00;4.15;;;;;;;10.99;75.67;92793.03;4889764;29;20025;-80
2023/11/11 04:42:41;;;;;;;8.80;4.60;;;;;;;10.84;76.07;92807.84;4890714;29;20025;-79
2023/11/11 04:45:07;;;;;;;7.85;5.00;;;;;;;10.70;76.30;92812.78;4890520;29;20048;-80
2023/11/11 04:47:32;;;;;;;6.72;4.63;;;;;;;10.56;76.75;92812.41;4890520;29;20029;-80
2023/11/11 04:49:57;;;;;;;9.65;5.38;;;;;;;10.52;77.46;92814.19;4889609;29;20334;-80
2023/11/11 04:52:25;;;;;;;8.45;4.72;;;;;;;10.45;77.72;92833.41;4889195;29;20403;-80
2023/11/11 04:54:50;;;;;;;9.10;4.60;;;;;;;10.46;77.72;92834.97;4890346;29;20072;-80
2023/11/11 04:57:15;;;;;;;6.35;3.65;;;;;;;10.45;77.47;92849.41;4890264;29;20021;-79
2023/11/11 04:59:41;;;;;;;7.22;3.95;;;;;;;10.51;77.50;92837.41;4890341;29;20319;-79
2023/11/11 05:02:06;;;;;;;10.02;6.28;;;;;;;10.48;79.13;92848.72;4889340;29;20025;-79
2023/11/11 05:04:32;;;;;;;8.00;5.30;;;;;;;10.38;79.97;92849.19;4890512;29;20033;-80
2023/11/11 05:06:58;;;;;;;11.18;5.50;;;;;;;10.34;81.35;92827.00;4890195;29;20025;-79
2023/11/11 05:09:23;;;;;;;9.30;5.35;;;;;;;10.33;81.72;92782.84;4890323;29;20232;-79
2023/11/11 05:11:50;;;;;;;9.95;5.43;;;;;;;10.23;83.07;92774.16;4890123;29;20025;-79
2023/11/11 05:14:18;;;;;;;14.80;6.20;;;;;;;10.11;84.45;92776.09;4889930;29;20267;-79
2023/11/11 05:16:50;;;;;;;10.85;6.57;;;;;;;9.98;85.06;92780.66;4888984;29;20132;-79
2023/11/11 05:19:17;;;;;;;14.38;6.55;;;;;;;9.94;85.68;92793.09;4890000;29;20073;-78
2023/11/11 05:21:43;;;;;;;11.45;6.18;;;;;;;9.91;85.58;92793.75;4890201;29;20028;-81
2023/11/11 05:24:08;;;;;;;10.38;7.38;;;;;;;9.76;85.54;92757.94;4889841;29;20311;-77
2023/11/11 05:26:38;;;;;;;22.55;10.18;;;;;;;9.63;85.15;92781.13;4889842;29;20033;-77
2023/11/11 05:29:03;;;;;;;9.13;5.95;;;;;;;9.58;86.98;92768.81;4889962;29;20104;-77
2023/11/11 05:31:31;;;;;;;17.42;7.25;;;;;;;9.49;85.19;92778.81;4890005;29;20267;-79
2023/11/11 05:33:57;;;;;;;10.38;6.45;;;;;;;9.36;85.86;92746.13;4888405;29;20030;-79
2023/11/11 05:36:23;;;;;;;10.40;5.75;;;;;;;9.37;86.14;92779.56;4889737;29;20077;-79
2023/11/11 05:38:49;;;;;;;11.60;6.05;;;;;;;9.42;87.36;92805.94;4889765;29;20044;-80
2023/11/11 05:41:14;;;;;;;9.77;5.88;;;;;;;9.43;87.88;92810.16;4889629;29;20028;-79
2023/11/11 05:43:40;;;;;;;8.43;5.57;;;;;;;9.47;88.27;92830.78;4889504;29;20033;-80
2023/11/11 05:46:07;;;;;;;14.82;5.65;;;;;;;9.54;88.16;92817.69;4889680;29;20021;-81
2023/11/11 05:48:33;;;;;;;8.45;5.88;;;;;;;9.53;88.06;92800.97;4888471;29;20029;-80
2023/11/11 05:50:58;;;;;;;10.57;5.30;;;;;;;9.63;87.86;92805.09;4889662;29;20255;-80
2023/11/11 05:53:24;;;;;;;11.68;5.70;;;;;;;9.67;88.00;92797.19;4888191;29;20044;-80
2023/11/11 05:55:50;;;;;;;6.93;4.72;;;;;;;9.64;88.44;92790.66;4889502;29;20025;-80
2023/11/11 05:58:15;;;;;;;7.68;4.60;;;;;;;9.67;88.68;92773.25;4888240;29;20036;-80
2023/11/11 06:00:41;;;;;;;8.98;3.35;;;;;;;9.75;88.62;92797.09;4888327;29;20029;-80
2023/11/11 06:03:07;;;;;;;5.65;2.95;;;;;;;9.87;88.51;92756.41;4888128;29;20025;-79
2023/11/11 06:05:34;;;;;;;9.65;3.08;;;;;;;9.93;88.21;92796.84;4888364;29;20253;-79
2023/11/11 06:08:01;;;;;;;3.42;2.00;;;;;;;10.02;87.01;92794.84;4889150;29;20021;-80
2023/11/11 06:10:27;;;;;;;4.85;1.55;;;;;;;10.13;84.44;92811.91;4889277;29;20025;-80
2023/11/11 06:12:52;;;;;;;3.88;1.10;;;;;;;10.25;85.73;92809.22;4888988;29;20072;-79
2023/11/11 06:15:18;;;;;;;3.80;1.60;;;;;;;10.31;86.30;92790.41;4889347;29;20028;-79
2023/11/11 06:17:46;;;;;;;5.82;1.92;;;;;;;10.42;86.28;92764.81;4889383;29;20222;-79
2023/11/11 06:20:11;;;;;;;2.67;1.60;;;;;;;10.51;86.36;92773.47;4889342;29;20028;-79
2023/11/11 06:22:37;;;;;;;6.00;1.75;;;;;;;10.63;86.42;92775.31;4887923;29;20017;-79
2023/11/11 06:25:03;;;;;;;6.05;3.15;;;;;;;10.70;86.06;92772.06;4889265;29;20035;-79
2023/11/11 06:27:28;;;;;;;12.75;5.43;;;;;;;10.72;85.93;92769.81;4889130;29;20025;-78
2023/11/11 06:29:54;;;;;;;8.88;6.15;;;;;;;10.75;85.74;92793.16;4889140;29;20029;-77
2023/11/11 06:32:19;;;;;;;11.18;5.32;;;;;;;10.62;85.01;92766.56;4887695;29;20052;-77
2023/11/11 06:34:46;;;;;;;9.95;4.93;;;;;;;10.51;85.60;92778.78;4889016;29;20021;-77
2023/11/11 06:37:12;;;;;;;9.40;5.85;;;;;;;10.48;86.32;92768.78;4888889;29;20025;-77
2023/11/11 06:39:37;;;;;;;12.13;5.30;;;;;;;10.49;86.53;92791.66;4888893;29;20029;-77
2023/11/11 06:42:03;;;;;;;14.73;4.53;;;;;;;10.54;86.67;92775.47;4888904;29;20092;-76
2023/11/11 06:44:29;;;;;;;9.75;4.28;;;;;;;10.55;86.74;92766.34;4888919;29;20282;-76
2023/11/11 06:46:54;;;;;;;11.40;4.40;;;;;;;10.61;86.37;92775.63;4888697;29;20041;-76
2023/11/11 06:49:20;;;;;;;6.10;3.22;;;;;;;10.69;86.11;92778.50;4888719;29;20050;-77
2023/11/11 06:51:45;;;;;;;4.35;2.15;;;;;;;10.67;85.52;92788.75;4888760;29;20024;-77
2023/11/11 06:54:11;;;;;;;5.72;2.42;;;;;;;10.60;83.64;92752.78;4888436;29;20081;-77
2023/11/11 06:56:36;;;;;;;4.63;2.22;;;;;;;10.68;83.83;92728.97;4888702;29;20021;-76
2023/11/11 06:59:02;;;;;;;5.90;2.13;;;;;;;10.72;82.75;92730.63;4888636;29;20052;-77
2023/11/11 07:01:30;;;;;;;10.05;2.63;;;;;;;10.78;82.88;92745.25;4888701;29;20032;-78
2023/11/11 07:03:56;;;;;;;5.43;2.90;;;;;;;10.86;82.81;92778.19;4888637;29;20068;-78
2023/11/11 07:06:25;;;;;;;6.20;2.70;;;;;;;10.86;82.67;92767.53;4888545;29;20025;-80
2023/11/11 07:08:51;;;;;;;7.43;3.25;;;;;;;10.97;83.19;92741.94;4887424;29;20032;-80
2023/11/11 07:11:18;;;;;;;3.95;2.53;;;;;;;10.99;81.64;92723.72;4888719;29;20063;-79
2023/11/11 07:13:46;;;;;;;5.63;3.20;;;;;;;11.08;81.30;92720.09;4887382;29;20295;-79
2023/11/11 07:16:17;;;;;;;5.90;2.60;;;;;;;11.23;80.89;92721.97;4887426;29;20024;-79
2023/11/11 07:18:44;;;;;;;4.43;1.95;;;;;;;11.29;78.17;92728.59;4889758;29;20025;-79
2023/11/11 07:21:21;;;;;;;5.78;2.13;;;;;;;11.41;77.69;92738.44;4891973;29;20099;-79
2023/11/11 07:23:51;;;;;;;6.90;2.40;;;;;;;11.51;77.33;92737.91;4891834;29;20025;-80
2023/11/11 07:26:17;;;;;;;4.97;2.63;;;;;;;11.64;77.21;92757.25;4892096;29;20033;-79
2023/11/11 07:28:46;;;;;;;5.53;3.35;;;;;;;11.62;75.35;92749.63;4892063;29;20048;-79
2023/11/11 07:31:13;;;;;;;6.47;3.78;;;;;;;11.54;77.01;92747.09;4891788;29;20052;-78
2023/11/11 07:33:39;;;;;;;11.02;5.63;;;;;;;11.42;80.38;92746.09;4890648;29;20044;-81
2023/11/11 07:36:04;;;;;;;8.15;5.85;;;;;;;11.30;82.16;92740.06;4891637;29;20091;-79
2023/11/11 07:38:33;;;;;;;10.35;6.28;;;;;;;11.30;82.24;92745.41;4891857;29;20025;-83
2023/11/11 07:40:59;;;;;;;12.65;6.85;;;;;;;11.27;82.70;92738.09;4892009;29;20252;-84
2023/11/11 07:43:24;;;;;;;15.30;7.43;;;;;;;11.19;82.79;92721.91;4890924;29;20025;-84
2023/11/11 07:45:51;;;;;;;10.82;7.43;;;;;;;11.26;83.35;92721.31;4891715;29;20047;-85
2023/11/11 07:48:18;;;;;;;12.52;7.53;;;;;;;11.34;83.18;92704.34;4890474;29;20073;-85
2023/11/11 07:50:46;;;;;;;13.10;7.13;;;;;;;11.46;84.31;92695.50;4892030;29;20029;-85
2023/11/11 07:53:14;;;;;;;11.00;6.60;;;;;;;11.51;82.34;92697.88;4891299;29;20051;-84
2023/11/11 07:55:41;;;;;;;9.27;5.82;;;;;;;11.54;81.28;92709.75;4891278;29;20029;-80
2023/11/11 07:58:06;;;;;;;18.55;5.97;;;;;;;11.54;80.46;92696.41;4890327;29;20268;-80
2023/11/11 08:00:33;;;;;;;10.57;5.47;;;;;;;11.54;81.11;92693.72;4891492;29;20040;-80
2023/11/11 08:02:59;;;;;;;11.95;5.40;;;;;;;11.53;79.24;92694.88;4891316;29;20315;-78
2023/11/11 08:05:28;;;;;;;8.32;4.57;;;;;;;11.63;79.72;92713.78;4891090;29;20049;-77
2023/11/11 08:07:56;;;;;;;11.23;6.25;;;;;;;11.77;80.26;92713.34;4890143;29;20032;-81
2023/11/11 08:10:23;;;;;;;9.80;4.72;;;;;;;11.87;77.12;92701.34;4889992;29;20406;-78
2023/11/11 08:12:50;;;;;;;15.10;5.38;;;;;;;11.79;75.71;92700.41;4890746;29;20259;-78
2023/11/11 08:15:16;;;;;;;7.35;3.28;;;;;;;11.74;74.09;92678.53;4890952;29;20028;-77
2023/11/11 08:17:45;;;;;;;7.40;4.25;;;;;;;11.81;72.96;92689.38;4890905;29;20033;-77
2023/11/11 08:20:11;;;;;;;10.35;4.38;;;;;;;11.78;73.33;92680.16;4890811;29;20029;-77
2023/11/11 08:22:39;;;;;;;5.68;3.42;;;;;;;11.79;73.49;92689.72;4889816;29;21481;-77
2023/11/11 08:25:06;;;;;;;5.82;2.80;;;;;;;11.94;69.93;92682.06;4889791;29;20027;-77
2023/11/11 08:27:32;;;;;;;9.80;3.65;;;;;;;12.14;70.94;92694.31;4890035;29;20274;-77
2023/11/11 08:29:59;;;;;;;9.65;4.20;;;;;;;12.38;72.22;92674.53;4890490;29;20327;-77
2023/11/11 08:32:24;;;;;;;6.07;3.35;;;;;;;12.46;72.80;92720.91;4890817;29;20032;-78
2023/11/11 08:34:50;;;;;;;8.32;3.25;;;;;;;12.57;73.07;92672.97;4890753;29;20096;-79
2023/11/11 08:37:18;;;;;;;10.07;5.88;;;;;;;12.68;72.58;92686.53;4890933;29;20025;-78
2023/11/11 08:39:50;;;;;;;9.30;5.18;;;;;;;12.82;73.62;92668.06;4890766;29;20037;-79
2023/11/11 08:42:15;;;;;;;6.68;3.90;;;;;;;12.85;71.44;92686.84;4887999;29;20033;-78
2023/11/11 08:44:41;;;;;;;4.95;2.83;;;;;;;12.97;69.59;92677.13;4889330;29;20032;-79
2023/11/11 08:47:06;;;;;;;8.30;3.03;;;;;;;13.05;68.34;92660.06;4889519;29;20035;-79
2023/11/11 08:49:33;;;;;;;6.15;2.15;;;;;;;13.18;68.14;92657.97;4890705;29;20056;-79
2023/11/11 08:51:59;;;;;;;2.00;1.13;;;;;;;13.36;63.69;92664.41;4890679;29;20035;-79
2023/11/11 08:54:26;;;;;;;7.25;2.05;;;;;;;13.58;63.48;92680.81;4888982;29;20052;-78
2023/11/11 08:56:51;;;;;;;7.07;3.75;;;;;;;13.62;68.21;92662.88;4888608;29;20103;-78
2023/11/11 08:59:18;;;;;;;3.90;1.42;;;;;;;13.70;63.63;92629.72;4888713;29;20033;-79
2023/11/11 09:01:44;;;;;;;1.25;0.50;;;;;;;13.78;55.99;92642.06;4889196;29;20025;-78
2023/11/11 09:04:09;;;;;;;1.30;0.43;;;;;;;13.88;56.62;92653.28;4888325;29;20024;-77
2023/11/11 09:06:35;;;;;;;2.00;0.68;;;;;;;13.98;57.71;92629.31;4888838;29;20340;-78
2023/11/11 09:09:01;;;;;;;3.85;0.85;;;;;;;13.93;57.12;92631.53;4888950;29;20040;-78
2023/11/11 09:11:27;;;;;;;4.28;0.95;;;;;;;14.12;58.01;92644.00;4887785;29;20028;-78
2023/11/11 09:13:52;;;;;;;1.02;0.50;;;;;;;14.19;56.94;92618.09;4888185;29;20237;-78
2023/11/11 09:16:18;;;;;;;1.80;0.45;;;;;;;14.48;56.82;92601.53;4888306;29;20048;-78
2023/11/11 09:18:44;;;;;;;2.45;0.40;;;;;;;14.63;55.96;92619.31;4889827;29;20048;-77
2023/11/11 09:21:09;;;;;;;0.80;0.40;;;;;;;14.79;54.48;92582.31;4889736;29;20024;-78
2023/11/11 09:23:36;;;;;;;3.47;0.80;;;;;;;14.83;55.49;92587.72;4889725;29;20025;-78
2023/11/11 09:26:05;;;;;;;5.18;1.48;;;;;;;14.86;57.80;92587.00;4888822;29;20031;-78
2023/11/11 09:28:32;;;;;;;5.57;1.15;;;;;;;14.86;56.13;92589.66;4888756;29;20025;-78
2023/11/11 09:30:57;;;;;;;5.85;0.60;;;;;;;14.72;54.25;92619.03;4889848;29;20021;-78
2023/11/11 09:33:23;;;;;;;1.70;0.90;;;;;;;14.70;55.00;92587.22;4889515;29;20196;-78
2023/11/11 09:35:49;;;;;;;4.80;1.35;;;;;;;14.76;57.29;92623.28;4889752;29;20021;-78
2023/11/11 09:38:14;;;;;;;2.65;0.77;;;;;;;14.81;56.36;92619.50;4889726;29;20025;-78
2023/11/11 09:40:43;;;;;;;1.02;0.45;;;;;;;14.98;54.13;92593.97;4889101;29;20025;-78
2023/11/11 09:43:09;;;;;;;0.68;0.40;;;;;;;15.09;53.30;92594.84;4889124;29;20017;-78
2023/11/11 09:45:35;;;;;;;1.13;0.40;;;;;;;14.98;51.24;92549.16;4889719;29;20079;-79
2023/11/11 09:48:01;;;;;;;0.70;0.40;;;;;;;14.90;52.59;92560.16;4888481;29;20025;-79
2023/11/11 09:50:29;;;;;;;0.60;0.50;;;;;;;14.82;53.13;92573.53;4889608;29;20108;-78
2023/11/11 09:52:57;;;;;;;0.50;0.38;;;;;;;14.88;53.12;92573.97;4888095;29;20044;-78
2023/11/11 09:55:23;;;;;;;0.20;0.20;;;;;;;14.96;51.47;92580.94;4889293;29;20317;-78
2023/11/11 09:57:49;;;;;;;0.57;0.30;;;;;;;15.03;52.46;92567.56;4889239;29;20028;-78
2023/11/11 10:00:16;;;;;;;0.20;0.20;;;;;;;14.92;53.37;92542.59;4889418;29;20096;-79
2023/11/11 10:02:42;;;;;;;0.88;0.40;;;;;;;14.82;53.62;92581.59;4889286;29;20028;-78
2023/11/11 10:05:09;;;;;;;0.55;0.32;;;;;;;14.57;52.19;92565.28;4889140;29;20020;-79
2023/11/11 10:07:39;;;;;;;0.20;0.20;;;;;;;14.64;53.00;92551.16;4889308;29;20338;-79
2023/11/11 10:10:08;;;;;;;0.95;0.40;;;;;;;14.67;53.25;92558.44;4887946;29;20021;-78
2023/11/11 10:12:35;;;;;;;0.57;0.43;;;;;;;14.72;56.75;92562.72;4889103;29;20028;-79
2023/11/11 10:15:04;;;;;;;0.40;0.20;;;;;;;14.43;55.57;92540.97;4889253;29;20035;-79
2023/11/11 10:17:35;;;;;;;0.90;0.30;;;;;;;14.42;58.89;92545.56;4888087;29;20032;-78
2023/11/11 10:20:04;;;;;;;0.50;0.30;;;;;;;14.37;58.53;92545.13;4889155;29;20037;-79
2023/11/11 10:22:29;;;;;;;0.45;0.30;;;;;;;14.43;58.77;92531.03;4889096;29;20088;-79
2023/11/11 10:24:56;;;;;;;1.08;0.70;;;;;;;14.50;57.40;92543.72;4887812;29;20319;-79
2023/11/11 10:27:21;;;;;;;2.10;0.30;;;;;;;14.69;52.90;92520.53;4889058;29;20044;-79
2023/11/11 10:29:47;;;;;;;3.00;0.32;;;;;;;14.84;54.62;92527.56;4887865;29;20219;-79
2023/11/11 10:32:12;;;;;;;0.52;0.30;;;;;;;14.62;52.48;92532.75;4888801;29;20255;-79
2023/11/11 10:34:38;;;;;;;0.57;0.40;;;;;;;14.58;54.27;92537.31;4888941;29;20032;-78
2023/11/11 10:37:05;;;;;;;0.70;0.30;;;;;;;14.50;53.22;92508.88;4887747;29;20032;-81
2023/11/11 10:39:33;;;;;;;0.80;0.40;;;;;;;14.48;52.87;92507.72;4888970;29;20044;-79
2023/11/11 10:42:01;;;;;;;1.75;0.28;;;;;;;14.46;54.25;92521.47;4888955;29;20028;-79
2023/11/11 10:44:26;;;;;;;1.75;0.50;;;;;;;14.49;53.00;92512.72;4888764;29;20025;-79
2023/11/11 10:46:53;;;;;;;0.20;0.20;;;;;;;14.59;50.86;92533.50;4888657;29;20060;-79
2023/11/11 10:49:19;;;;;;;0.25;0.25;;;;;;;14.67;50.40;92539.69;4888445;29;20334;-79
2023/11/11 10:51:45;;;;;;;1.08;0.30;;;;;;;14.75;52.58;92535.16;4888635;29;20084;-79
2023/11/11 10:54:13;;;;;;;0.38;0.35;;;;;;;14.65;52.07;92525.88;4890746;29;20268;-79
2023/11/11 10:56:39;;;;;;;0.63;0.40;;;;;;;14.53;52.33;92515.41;4892480;29;20227;-79
2023/11/11 10:59:05;;;;;;;0.70;0.30;;;;;;;14.46;52.08;92521.47;4892372;29;20032;-79
2023/11/11 11:01:35;;;;;;;0.98;0.65;;;;;;;14.33;52.14;92521.00;4892567;29;20048;-79
2023/11/11 11:04:03;;;;;;;0.90;0.50;;;;;;;14.17;53.35;92512.41;4892473;29;20048;-78
2023/11/11 11:06:53;;;;;;;1.25;0.20;;;;;;;14.04;52.62;92503.84;4892484;29;20069;-79
2023/11/11 11:09:21;;;;;;;0.32;0.30;;;;;;;14.12;53.59;92507.38;4891154;29;20036;-78
2023/11/11 11:11:50;;;;;;;0.30;0.30;;;;;;;14.24;51.79;92502.50;4892146;29;20077;-78
2023/11/11 11:14:25;;;;;;;0.98;0.47;;;;;;;14.27;53.23;92500.22;4891038;29;20045;-78
2023/11/11 11:16:51;;;;;;;1.80;0.57;;;;;;;14.35;53.35;92483.06;4892134;29;20021;-78
2023/11/11 11:19:18;;;;;;;0.73;0.50;;;;;;;14.30;53.48;92486.09;4892238;29;20334;-79
2023/11/11 11:21:43;;;;;;;1.45;0.50;;;;;;;14.23;52.51;92468.06;4891994;29;20021;-79
2023/11/11 11:24:10;;;;;;;0.68;0.38;;;;;;;14.17;51.82;92472.97;4892001;29;20047;-79
2023/11/11 11:26:36;;;;;;;0.32;0.20;;;;;;;14.20;52.33;92460.75;4891898;29;20337;-79
2023/11/11 11:29:16;;;;;;;0.60;0.40;;;;;;;14.23;51.84;92458.09;4892043;29;20021;-78
2023/11/11 11:32:06;;;;;;;0.50;0.32;;;;;;;14.27;51.05;92462.72;4891852;29;20029;-79
2023/11/11 11:34:31;;;;;;;1.42;0.30;;;;;;;14.30;51.32;92478.06;4891984;29;20056;-79